createdAt,value
2019-05-01T00:02:44.225Z,93.90
2019-05-01T00:07:50.450Z,93.90
2019-05-01T00:12:56.647Z,94.00
2019-05-01T00:18:02.575Z,94.40
2019-05-01T00:23:08.766Z,94.50
2019-05-01T00:28:16.414Z,94.40
2019-05-01T00:33:22.386Z,94.20
2019-05-01T00:38:28.316Z,94.30
2019-05-01T00:43:34.181Z,94.30
2019-05-01T00:48:40.289Z,94.20
2019-05-01T00:53:47.719Z,94.40
2019-05-01T00:59:11.582Z,94.40
2019-05-01T01:04:19.213Z,94.30
2019-05-01T01:09:25.193Z,94.40
2019-05-01T01:14:31.168Z,94.20
2019-05-01T01:19:37.355Z,94.00
2019-05-01T01:24:43.704Z,94.10
2019-05-01T01:29:49.782Z,94.40
2019-05-01T01:34:55.951Z,94.50
2019-05-01T01:40:01.926Z,94.70
2019-05-01T01:45:39.122Z,94.50
2019-05-01T01:50:46.225Z,94.40
2019-05-01T01:55:54.429Z,94.00
2019-05-01T02:01:18.984Z,94.10
2019-05-01T02:06:25.058Z,94.10
2019-05-01T02:11:31.437Z,94.60
2019-05-01T02:16:37.421Z,95.00
2019-05-01T02:21:43.593Z,94.90
2019-05-01T02:26:51.347Z,94.90
2019-05-01T02:31:58.646Z,95.20
2019-05-01T02:37:05.232Z,95.30
2019-05-01T02:42:14.226Z,95.20
2019-05-01T02:47:24.233Z,95.30
2019-05-01T02:52:34.400Z,95.80
2019-05-01T02:57:43.006Z,95.80
2019-05-01T03:02:49.412Z,95.90
2019-05-01T03:07:55.633Z,95.70
2019-05-01T03:13:02.075Z,96.10
2019-05-01T03:18:20.923Z,96.00
2019-05-01T03:23:39.550Z,96.00
2019-05-01T03:28:46.182Z,95.90
2019-05-01T03:33:52.315Z,95.50
2019-05-01T03:38:58.453Z,95.20
2019-05-01T03:44:05.266Z,95.70
2019-05-01T03:49:11.516Z,95.90
2019-05-01T03:54:18.239Z,95.90
2019-05-01T03:59:25.520Z,95.90
2019-05-01T04:04:32.366Z,95.90
2019-05-01T04:09:39.001Z,96.10
2019-05-01T04:14:45.394Z,96.20
2019-05-01T04:19:51.786Z,96.20
2019-05-01T04:24:58.349Z,96.20
2019-05-01T04:30:15.880Z,97.00
2019-05-01T04:35:30.735Z,96.90
2019-05-01T04:40:36.581Z,97.10
2019-05-01T04:45:43.091Z,97.00
2019-05-01T04:50:50.524Z,97.30
2019-05-01T04:55:58.083Z,97.30
2019-05-01T05:01:04.558Z,97.30
2019-05-01T05:06:10.922Z,97.00
2019-05-01T05:11:22.613Z,96.80
2019-05-01T05:17:02.842Z,97.00
2019-05-01T05:22:09.242Z,97.20
2019-05-01T05:27:16.207Z,97.10
2019-05-01T05:32:23.574Z,97.00
2019-05-01T05:37:35.779Z,97.30
2019-05-01T05:42:42.123Z,96.70
2019-05-01T05:47:48.030Z,96.80
2019-05-01T05:53:01.914Z,96.80
2019-05-01T05:58:15.622Z,96.70
2019-05-01T06:03:41.312Z,96.50
2019-05-01T06:08:50.124Z,96.40
2019-05-01T06:14:14.518Z,96.60
2019-05-01T06:19:32.242Z,96.70
2019-05-01T06:24:44.701Z,96.50
2019-05-01T06:29:50.921Z,96.50
2019-05-01T06:34:58.426Z,96.30
2019-05-01T06:40:05.346Z,96.50
2019-05-01T06:45:16.785Z,96.30
2019-05-01T06:50:31.937Z,96.30
2019-05-01T06:55:38.429Z,96.40
2019-05-01T07:00:44.796Z,96.50
2019-05-01T07:05:54.538Z,96.40
2019-05-01T07:11:00.170Z,96.20
2019-05-01T07:16:06.130Z,95.90
2019-05-01T07:21:12.087Z,95.80
2019-05-01T07:26:18.048Z,95.50
2019-05-01T07:31:25.986Z,95.80
2019-05-01T07:36:31.963Z,95.90
2019-05-01T07:41:38.929Z,95.50
2019-05-01T07:46:56.309Z,95.50
2019-05-01T07:52:02.299Z,95.50
2019-05-01T07:57:08.457Z,95.50
2019-05-01T08:02:14.860Z,95.70
2019-05-01T08:07:21.071Z,95.70
2019-05-01T08:12:27.101Z,95.60
2019-05-01T08:17:38.612Z,95.70
2019-05-01T08:22:44.656Z,95.40
2019-05-01T08:27:57.943Z,95.00
2019-05-01T08:33:22.361Z,94.60
2019-05-01T08:38:34.326Z,94.30
2019-05-01T08:43:39.257Z,94.10
2019-05-01T08:48:49.999Z,94.10
2019-05-01T08:53:57.951Z,93.80
2019-05-01T08:59:03.902Z,93.40
2019-05-01T09:04:12.981Z,93.00
2019-05-01T09:09:19.221Z,92.60
2019-05-01T09:14:25.477Z,92.20
2019-05-01T09:19:31.459Z,91.70
2019-05-01T09:24:37.330Z,91.30
2019-05-01T09:29:51.456Z,91.20
2019-05-01T09:34:54.694Z,90.70
2019-05-01T09:40:04.252Z,90.40
2019-05-01T09:45:09.078Z,90.50
2019-05-01T09:50:15.893Z,90.50
2019-05-01T09:55:26.517Z,90.40
2019-05-01T10:00:33.268Z,90.30
2019-05-01T10:05:42.813Z,90.30
2019-05-01T10:10:48.575Z,89.70
2019-05-01T10:15:54.548Z,89.40
2019-05-01T10:21:00.557Z,88.90
2019-05-01T10:26:08.646Z,88.70
2019-05-01T10:31:25.399Z,88.90
2019-05-01T10:36:45.476Z,88.20
2019-05-01T10:41:51.389Z,87.80
2019-05-01T10:46:57.838Z,87.80
2019-05-01T10:52:13.681Z,87.60
2019-05-01T10:57:12.992Z,86.80
2019-05-01T11:02:19.723Z,87.00
2019-05-01T11:07:26.023Z,86.60
2019-05-01T11:12:32.035Z,86.30
2019-05-01T11:17:38.240Z,85.70
2019-05-01T11:22:43.975Z,85.80
2019-05-01T11:27:50.352Z,86.10
2019-05-01T11:33:04.768Z,85.90
2019-05-01T11:38:38.664Z,85.60
2019-05-01T11:43:44.875Z,85.00
2019-05-01T11:48:50.817Z,84.60
2019-05-01T11:53:56.691Z,84.40
2019-05-01T11:59:02.572Z,84.50
2019-05-01T12:04:08.648Z,84.20
2019-05-01T12:09:15.149Z,84.10
2019-05-01T12:14:21.110Z,83.90
2019-05-01T12:19:46.129Z,83.30
2019-05-01T12:24:53.233Z,83.10
2019-05-01T12:30:08.424Z,83.10
2019-05-01T12:35:24.908Z,82.80
2019-05-01T12:40:37.424Z,82.70
2019-05-01T12:45:49.780Z,82.60
2019-05-01T13:03:46.507Z,81.40
2019-05-01T13:08:52.742Z,81.20
2019-05-01T13:13:59.041Z,81.00
2019-05-01T13:19:05.978Z,79.40
2019-05-01T13:24:12.817Z,78.90
2019-05-01T13:29:33.052Z,77.40
2019-05-01T13:34:39.509Z,75.50
2019-05-01T13:39:45.650Z,76.00
2019-05-01T13:44:52.218Z,75.30
2019-05-01T13:49:58.451Z,74.70
2019-05-01T13:55:04.988Z,73.10
2019-05-01T14:00:12.373Z,72.10
2019-05-01T14:05:18.673Z,71.50
2019-05-01T14:10:24.951Z,71.20
2019-05-01T14:15:31.705Z,70.90
2019-05-01T14:21:09.014Z,71.90
2019-05-01T14:26:18.308Z,72.10
2019-05-01T14:31:24.294Z,72.70
2019-05-01T14:36:30.773Z,72.80
2019-05-01T14:41:37.081Z,72.00
2019-05-01T14:46:45.942Z,71.00
2019-05-01T14:52:09.315Z,71.20
2019-05-01T14:57:18.711Z,69.70
2019-05-01T15:02:25.200Z,69.90
2019-05-01T15:07:43.176Z,69.80
2019-05-01T15:12:57.016Z,69.40
2019-05-01T15:18:14.383Z,69.30
2019-05-01T15:23:20.348Z,69.40
2019-05-01T15:28:26.841Z,69.50
2019-05-01T15:33:33.047Z,69.60
2019-05-01T15:38:39.251Z,69.70
2019-05-01T15:44:04.092Z,69.80
2019-05-01T15:49:10.050Z,69.40
2019-05-01T15:54:15.988Z,69.30
2019-05-01T15:59:22.042Z,69.60
2019-05-01T16:04:28.405Z,68.90
2019-05-01T16:09:34.521Z,68.80
2019-05-01T16:14:46.624Z,68.90
2019-05-01T16:19:52.627Z,68.80
2019-05-01T16:24:59.302Z,69.80
2019-05-01T16:30:06.898Z,68.80
2019-05-01T16:35:13.188Z,69.20
2019-05-01T16:40:37.164Z,68.70
2019-05-01T16:45:43.020Z,68.70
2019-05-01T16:50:49.184Z,68.30
2019-05-01T16:55:55.452Z,67.60
2019-05-01T17:01:08.410Z,67.80
2019-05-01T17:06:33.216Z,67.70
2019-05-01T17:11:39.342Z,67.00
2019-05-01T17:16:46.183Z,67.90
2019-05-01T17:21:52.248Z,70.70
2019-05-01T17:26:58.305Z,72.10
2019-05-01T17:32:05.417Z,72.80
2019-05-01T17:37:11.502Z,73.30
2019-05-01T17:42:17.398Z,73.60
2019-05-01T17:47:24.622Z,74.20
2019-05-01T17:52:31.269Z,74.50
2019-05-01T17:57:37.312Z,74.00
2019-05-01T18:02:50.682Z,74.80
2019-05-01T18:07:56.540Z,74.90
2019-05-01T18:13:02.624Z,75.10
2019-05-01T18:18:10.715Z,75.60
2019-05-01T18:23:42.782Z,76.30
2019-05-01T18:28:54.961Z,76.70
2019-05-01T18:34:02.578Z,77.10
2019-05-01T18:39:25.339Z,77.20
2019-05-01T18:44:28.246Z,77.40
2019-05-01T18:49:37.155Z,77.10
2019-05-01T18:54:43.046Z,77.70
2019-05-01T18:59:49.131Z,78.00
2019-05-01T19:04:55.017Z,78.50
2019-05-01T19:10:01.071Z,78.40
2019-05-01T19:15:07.327Z,78.70
2019-05-01T19:20:13.515Z,79.00
2019-05-01T19:25:19.535Z,79.30
2019-05-01T19:30:25.588Z,79.60
2019-05-01T19:35:34.254Z,80.60
2019-05-01T19:40:39.700Z,80.20
2019-05-01T19:45:45.886Z,80.40
2019-05-01T19:50:52.034Z,80.30
2019-05-01T19:55:58.016Z,80.30
2019-05-01T20:01:05.364Z,80.70
2019-05-01T20:06:11.334Z,80.80
2019-05-01T20:11:17.583Z,80.70
2019-05-01T20:16:23.760Z,80.80
2019-05-01T20:21:30.045Z,80.90
2019-05-01T20:26:36.094Z,81.20
2019-05-01T20:31:45.786Z,81.40
2019-05-01T20:36:50.032Z,81.80
2019-05-01T20:41:56.049Z,82.40
2019-05-01T20:47:02.561Z,82.70
2019-05-01T20:52:09.594Z,83.00
2019-05-01T20:57:22.433Z,83.20
2019-05-01T21:02:28.573Z,83.70
2019-05-01T21:07:56.689Z,83.90
2019-05-01T21:13:01.109Z,84.00
2019-05-01T21:18:07.272Z,84.20
2019-05-01T21:23:14.339Z,85.00
2019-05-01T21:28:20.674Z,85.20
2019-05-01T21:33:26.814Z,85.40
2019-05-01T21:38:32.758Z,85.60
2019-05-01T21:43:38.797Z,86.00
2019-05-01T21:48:44.874Z,86.00
2019-05-01T21:53:50.634Z,86.00
2019-05-01T21:58:59.545Z,86.00
2019-05-01T22:04:04.324Z,86.20
2019-05-01T22:09:16.601Z,86.20
2019-05-01T22:14:44.923Z,86.50
2019-05-01T22:19:51.067Z,86.80
2019-05-01T22:25:21.657Z,87.00
2019-05-01T22:30:55.763Z,87.10
2019-05-01T22:36:02.098Z,87.20
2019-05-01T22:41:12.380Z,87.30
2019-05-01T22:46:23.418Z,87.70
2019-05-01T22:51:29.440Z,88.10
2019-05-01T22:56:35.563Z,88.20
2019-05-01T23:01:42.189Z,88.50
2019-05-01T23:06:47.846Z,90.10
2019-05-01T23:11:53.784Z,90.50
2019-05-01T23:17:27.887Z,90.60
2019-05-01T23:22:33.859Z,90.80
2019-05-01T23:27:39.855Z,91.50
2019-05-01T23:32:45.827Z,91.20
2019-05-01T23:37:51.817Z,91.40
2019-05-01T23:42:57.870Z,91.90
2019-05-01T23:48:03.920Z,91.90
2019-05-01T23:53:13.874Z,92.10
2019-05-01T23:58:17.119Z,92.10
